KCHO/CHO METAR and TAF weather

Enter ICAO airport designator
Station Type Date Time Source
KCHO METAR 2020/07/13 13:53 UTC NOAA

KCHO 131353Z 24003KT 10SM CLR 26/20 A2989 RMK AO2 SLP113 T02560200


Station Type Date Time Source
KCHO Decoded METAR 2020/07/13 13:53 UTC NOAA

CHARLOTTESVILLE-ALBEMARLE, VA, United States (KCHO) 38-08N 078-27W 192M
Jul 13, 2020 - 09:53 AM EDT / 2020.07.13 1353 UTC
Wind: from the WSW (240 degrees) at 3 MPH (3 KT):0
Visibility: 10 mile(s):0
Sky conditions: clear
Temperature: 78.1 F (25.6 C)
Dew Point: 68.0 F (20.0 C)
Relative Humidity: 71%
Pressure (altimeter): 29.89 in. Hg (1012 hPa)
ob: KCHO 131353Z 24003KT 10SM CLR 26/20 A2989 RMK AO2 SLP113 T02560200
cycle: 14

Station Type Date Time Source
KCHO TAF 2020/07/13 12:36 UTC NOAA

TAF KCHO 131134Z 1312/1412 00000KT P6SM SCT100
FM131400 VRB03KT P6SM SCT050
FM140000 VRB03KT P6SM BKN060
FM140500 00000KT P6SM SCT050

Example: see airport list